sensor_id;sensor_type;location;lat;lon;timestamp;pressure;altitude;pressure_sealevel;temperature
70819;BMP280;58439;51.046;13.692;2023-04-24T00:02:10;98761.53;;;12.35
70819;BMP280;58439;51.046;13.692;2023-04-24T00:04:38;98765.75;;;12.36
70819;BMP280;58439;51.046;13.692;2023-04-24T00:07:08;98779.66;;;12.37
70819;BMP280;58439;51.046;13.692;2023-04-24T00:09:35;98779.66;;;12.37
70819;BMP280;58439;51.046;13.692;2023-04-24T00:13:08;98767.34;;;12.37
70819;BMP280;58439;51.046;13.692;2023-04-24T00:17:21;98780.22;;;12.39
70819;BMP280;58439;51.046;13.692;2023-04-24T00:19:49;98798.56;;;12.39
70819;BMP280;58439;51.046;13.692;2023-04-24T00:22:18;98800.72;;;12.42
70819;BMP280;58439;51.046;13.692;2023-04-24T00:24:47;98782.38;;;12.42
70819;BMP280;58439;51.046;13.692;2023-04-24T00:27:14;98782.13;;;12.43
70819;BMP280;58439;51.046;13.692;2023-04-24T00:29:41;98786.66;;;12.48
70819;BMP280;58439;51.046;13.692;2023-04-24T00:32:09;98788.03;;;12.51
70819;BMP280;58439;51.046;13.692;2023-04-24T00:34:36;98786.22;;;12.51
70819;BMP280;58439;51.046;13.692;2023-04-24T00:37:07;98785.72;;;12.54
70819;BMP280;58439;51.046;13.692;2023-04-24T00:39:55;98776.03;;;12.55
70819;BMP280;58439;51.046;13.692;2023-04-24T00:42:30;98785.28;;;12.57
70819;BMP280;58439;51.046;13.692;2023-04-24T00:44:58;98777.41;;;12.57
70819;BMP280;58439;51.046;13.692;2023-04-24T00:47:25;98780.81;;;12.58
70819;BMP280;58439;51.046;13.692;2023-04-24T00:50:04;98782.41;;;12.59
70819;BMP280;58439;51.046;13.692;2023-04-24T00:52:32;98779.31;;;12.62
70819;BMP280;58439;51.046;13.692;2023-04-24T00:55:00;98779.31;;;12.62
70819;BMP280;58439;51.046;13.692;2023-04-24T00:57:27;98771.63;;;12.60
70819;BMP280;58439;51.046;13.692;2023-04-24T00:59:55;98769.28;;;12.59
70819;BMP280;58439;51.046;13.692;2023-04-24T01:02:22;98771.34;;;12.57
70819;BMP280;58439;51.046;13.692;2023-04-24T01:04:55;98766.47;;;12.49
70819;BMP280;58439;51.046;13.692;2023-04-24T01:07:26;98765.38;;;12.44
70819;BMP280;58439;51.046;13.692;2023-04-24T01:09:54;98760.59;;;12.41
70819;BMP280;58439;51.046;13.692;2023-04-24T01:12:21;98773.13;;;12.39
70819;BMP280;58439;51.046;13.692;2023-04-24T01:14:49;98765.75;;;12.36
70819;BMP280;58439;51.046;13.692;2023-04-24T01:17:16;98769.84;;;12.32
70819;BMP280;58439;51.046;13.692;2023-04-24T01:19:43;98767.50;;;12.31
70819;BMP280;58439;51.046;13.692;2023-04-24T01:22:15;98776.94;;;12.32
70819;BMP280;58439;51.046;13.692;2023-04-24T01:24:43;98769.66;;;12.34
70819;BMP280;58439;51.046;13.692;2023-04-24T01:27:12;98778.50;;;12.33
70819;BMP280;58439;51.046;13.692;2023-04-24T01:29:39;98778.06;;;12.36
70819;BMP280;58439;51.046;13.692;2023-04-24T01:32:09;98778.38;;;12.39
70819;BMP280;58439;51.046;13.692;2023-04-24T01:34:37;98771.56;;;12.38
70819;BMP280;58439;51.046;13.692;2023-04-24T01:37:05;98777.34;;;12.40
70819;BMP280;58439;51.046;13.692;2023-04-24T01:39:32;98775.06;;;12.44
70819;BMP280;58439;51.046;13.692;2023-04-24T01:42:04;98781.09;;;12.44
70819;BMP280;58439;51.046;13.692;2023-04-24T01:44:41;98773.47;;;12.43
70819;BMP280;58439;51.046;13.692;2023-04-24T01:47:09;98768.00;;;12.44
70819;BMP280;58439;51.046;13.692;2023-04-24T01:49:38;98775.63;;;12.46
70819;BMP280;58439;51.046;13.692;2023-04-24T01:53:37;98765.47;;;12.50
70819;BMP280;58439;51.046;13.692;2023-04-24T01:57:04;98764.44;;;12.51
70819;BMP280;58439;51.046;13.692;2023-04-24T02:04:17;98764.44;;;12.51
70819;BMP280;58439;51.046;13.692;2023-04-24T02:07:59;98766.03;;;12.52
70819;BMP280;58439;51.046;13.692;2023-04-24T02:11:33;98764.19;;;12.52
70819;BMP280;58439;51.046;13.692;2023-04-24T02:15:34;98764.94;;;12.53
70819;BMP280;58439;51.046;13.692;2023-04-24T02:18:44;98764.19;;;12.52
70819;BMP280;58439;51.046;13.692;2023-04-24T02:21:57;98761.56;;;12.52
70819;BMP280;58439;51.046;13.692;2023-04-24T02:24:24;98767.13;;;12.56
70819;BMP280;58439;51.046;13.692;2023-04-24T02:26:52;98768.50;;;12.58
70819;BMP280;58439;51.046;13.692;2023-04-24T02:29:19;98770.09;;;12.59
70819;BMP280;58439;51.046;13.692;2023-04-24T02:31:49;98768.22;;;12.60
70819;BMP280;58439;51.046;13.692;2023-04-24T02:34:16;98776.38;;;12.58
70819;BMP280;58439;51.046;13.692;2023-04-24T02:36:43;98773.16;;;12.56
70819;BMP280;58439;51.046;13.692;2023-04-24T02:39:11;98769.69;;;12.51
70819;BMP280;58439;51.046;13.692;2023-04-24T02:41:39;98768.78;;;12.45
70819;BMP280;58439;51.046;13.692;2023-04-24T02:44:06;98768.47;;;12.41
70819;BMP280;58439;51.046;13.692;2023-04-24T02:46:33;98765.53;;;12.38
70819;BMP280;58439;51.046;13.692;2023-04-24T02:49:00;98760.75;;;12.35
70819;BMP280;58439;51.046;13.692;2023-04-24T02:51:28;98757.03;;;12.31
70819;BMP280;58439;51.046;13.692;2023-04-24T02:53:57;98764.53;;;12.27
70819;BMP280;58439;51.046;13.692;2023-04-24T02:56:29;98761.13;;;12.27
70819;BMP280;58439;51.046;13.692;2023-04-24T03:00:29;98759.28;;;12.27
70819;BMP280;58439;51.046;13.692;2023-04-24T03:04:21;98747.22;;;12.26
70819;BMP280;58439;51.046;13.692;2023-04-24T03:12:24;98761.91;;;12.27
70819;BMP280;58439;51.046;13.692;2023-04-24T03:20:02;98750.41;;;12.28
70819;BMP280;58439;51.046;13.692;2023-04-24T03:22:46;98758.25;;;12.28
70819;BMP280;58439;51.046;13.692;2023-04-24T03:26:03;98747.56;;;12.30
70819;BMP280;58439;51.046;13.692;2023-04-24T03:30:11;98752.00;;;12.29
70819;BMP280;58439;51.046;13.692;2023-04-24T03:32:53;98753.03;;;12.28
70819;BMP280;58439;51.046;13.692;2023-04-24T03:35:25;98758.84;;;12.30
70819;BMP280;58439;51.046;13.692;2023-04-24T03:37:57;98758.56;;;12.32
70819;BMP280;58439;51.046;13.692;2023-04-24T03:40:44;98762.00;;;12.32
70819;BMP280;58439;51.046;13.692;2023-04-24T03:43:35;98769.97;;;12.37
70819;BMP280;58439;51.046;13.692;2023-04-24T03:46:04;98768.53;;;12.47
70819;BMP280;58439;51.046;13.692;2023-04-24T03:48:36;98768.50;;;12.58
70819;BMP280;58439;51.046;13.692;2023-04-24T03:51:05;98773.66;;;12.70
70819;BMP280;58439;51.046;13.692;2023-04-24T03:53:34;98769.28;;;12.76
70819;BMP280;58439;51.046;13.692;2023-04-24T03:56:02;98772.38;;;12.89
70819;BMP280;58439;51.046;13.692;2023-04-24T03:58:30;98780.97;;;13.01
70819;BMP280;58439;51.046;13.692;2023-04-24T04:00:57;98791.28;;;13.08
70819;BMP280;58439;51.046;13.692;2023-04-24T04:03:48;98793.75;;;13.15
70819;BMP280;58439;51.046;13.692;2023-04-24T04:06:19;98793.84;;;13.20
70819;BMP280;58439;51.046;13.692;2023-04-24T04:08:50;98795.66;;;13.19
70819;BMP280;58439;51.046;13.692;2023-04-24T04:11:17;98793.59;;;13.21
70819;BMP280;58439;51.046;13.692;2023-04-24T04:13:45;98792.59;;;13.27
70819;BMP280;58439;51.046;13.692;2023-04-24T04:16:17;98787.47;;;13.33
70819;BMP280;58439;51.046;13.692;2023-04-24T04:18:46;98784.00;;;13.32
70819;BMP280;58439;51.046;13.692;2023-04-24T04:25:29;98786.41;;;13.34
70819;BMP280;58439;51.046;13.692;2023-04-24T04:28:35;98798.50;;;13.35
70819;BMP280;58439;51.046;13.692;2023-04-24T04:31:44;98796.44;;;13.37
70819;BMP280;58439;51.046;13.692;2023-04-24T04:34:44;98802.16;;;13.34
70819;BMP280;58439;51.046;13.692;2023-04-24T04:37:12;98790.88;;;13.33
70819;BMP280;58439;51.046;13.692;2023-04-24T04:39:55;98794.53;;;13.32
70819;BMP280;58439;51.046;13.692;2023-04-24T04:42:26;98789.03;;;13.34
70819;BMP280;58439;51.046;13.692;2023-04-24T04:44:54;98787.75;;;13.36
70819;BMP280;58439;51.046;13.692;2023-04-24T04:47:34;98791.72;;;13.39
70819;BMP280;58439;51.046;13.692;2023-04-24T04:50:02;98783.91;;;13.44
70819;BMP280;58439;51.046;13.692;2023-04-24T04:52:32;98790.25;;;13.48
70819;BMP280;58439;51.046;13.692;2023-04-24T04:55:10;98796.72;;;13.57
70819;BMP280;58439;51.046;13.692;2023-04-24T04:58:00;98798.13;;;13.65
70819;BMP280;58439;51.046;13.692;2023-04-24T05:00:28;98799.50;;;13.72
70819;BMP280;58439;51.046;13.692;2023-04-24T05:03:13;98803.31;;;13.81
70819;BMP280;58439;51.046;13.692;2023-04-24T05:06:12;98799.75;;;13.93
70819;BMP280;58439;51.046;13.692;2023-04-24T05:08:40;98800.84;;;13.97
70819;BMP280;58439;51.046;13.692;2023-04-24T05:11:12;98808.56;;;14.03
70819;BMP280;58439;51.046;13.692;2023-04-24T05:13:40;98803.34;;;14.08
70819;BMP280;58439;51.046;13.692;2023-04-24T05:16:13;98804.19;;;14.14
70819;BMP280;58439;51.046;13.692;2023-04-24T05:18:40;98810.53;;;14.18
70819;BMP280;58439;51.046;13.692;2023-04-24T05:21:10;98808.16;;;14.16
70819;BMP280;58439;51.046;13.692;2023-04-24T05:23:39;98808.16;;;14.16
70819;BMP280;58439;51.046;13.692;2023-04-24T05:26:14;98801.63;;;14.19
70819;BMP280;58439;51.046;13.692;2023-04-24T05:28:42;98810.06;;;14.21
70819;BMP280;58439;51.046;13.692;2023-04-24T05:31:11;98813.22;;;14.23
70819;BMP280;58439;51.046;13.692;2023-04-24T05:33:39;98798.78;;;14.26
70819;BMP280;58439;51.046;13.692;2023-04-24T05:36:06;98805.91;;;14.30
70819;BMP280;58439;51.046;13.692;2023-04-24T05:38:34;98797.56;;;14.38
70819;BMP280;58439;51.046;13.692;2023-04-24T05:41:01;98803.69;;;14.44
70819;BMP280;58439;51.046;13.692;2023-04-24T05:43:31;98807.72;;;14.52
70819;BMP280;58439;51.046;13.692;2023-04-24T05:45:59;98805.66;;;14.59
70819;BMP280;58439;51.046;13.692;2023-04-24T05:48:26;98796.25;;;14.68
70819;BMP280;58439;51.046;13.692;2023-04-24T05:50:53;98798.16;;;14.77
70819;BMP280;58439;51.046;13.692;2023-04-24T05:53:23;98805.38;;;14.87
70819;BMP280;58439;51.046;13.692;2023-04-24T05:55:50;98808.56;;;14.94
70819;BMP280;58439;51.046;13.692;2023-04-24T05:58:18;98811.19;;;14.94
70819;BMP280;58439;51.046;13.692;2023-04-24T06:00:46;98813.31;;;14.97
70819;BMP280;58439;51.046;13.692;2023-04-24T06:03:14;98812.78;;;15.00
70819;BMP280;58439;51.046;13.692;2023-04-24T06:05:42;98811.53;;;15.03
70819;BMP280;58439;51.046;13.692;2023-04-24T06:08:10;98812.81;;;15.05
70819;BMP280;58439;51.046;13.692;2023-04-24T06:10:39;98816.81;;;15.08
70819;BMP280;58439;51.046;13.692;2023-04-24T06:13:08;98814.00;;;15.20
70819;BMP280;58439;51.046;13.692;2023-04-24T06:15:38;98814.06;;;15.30
70819;BMP280;58439;51.046;13.692;2023-04-24T06:18:25;98818.56;;;15.40
70819;BMP280;58439;51.046;13.692;2023-04-24T06:20:53;98817.56;;;15.51
70819;BMP280;58439;51.046;13.692;2023-04-24T06:23:23;98817.34;;;15.62
70819;BMP280;58439;51.046;13.692;2023-04-24T06:25:50;98818.66;;;15.60
70819;BMP280;58439;51.046;13.692;2023-04-24T06:28:18;98813.16;;;15.67
70819;BMP280;58439;51.046;13.692;2023-04-24T06:30:45;98819.25;;;15.72
70819;BMP280;58439;51.046;13.692;2023-04-24T06:33:12;98817.09;;;15.64
70819;BMP280;58439;51.046;13.692;2023-04-24T06:35:44;98826.06;;;15.63
70819;BMP280;58439;51.046;13.692;2023-04-24T06:38:12;98825.78;;;15.64
70819;BMP280;58439;51.046;13.692;2023-04-24T06:40:39;98817.91;;;15.70
70819;BMP280;58439;51.046;13.692;2023-04-24T06:43:06;98816.66;;;15.77
70819;BMP280;58439;51.046;13.692;2023-04-24T06:45:33;98820.13;;;15.98
70819;BMP280;58439;51.046;13.692;2023-04-24T06:48:01;98819.09;;;16.14
70819;BMP280;58439;51.046;13.692;2023-04-24T06:50:28;98823.59;;;16.29
70819;BMP280;58439;51.046;13.692;2023-04-24T06:52:55;98822.31;;;16.42
70819;BMP280;58439;51.046;13.692;2023-04-24T06:55:22;98822.06;;;16.53
70819;BMP280;58439;51.046;13.692;2023-04-24T06:57:49;98822.31;;;16.72
70819;BMP280;58439;51.046;13.692;2023-04-24T07:00:16;98823.34;;;16.71
70819;BMP280;58439;51.046;13.692;2023-04-24T07:02:43;98824.41;;;16.65
70819;BMP280;58439;51.046;13.692;2023-04-24T07:05:11;98834.94;;;16.70
70819;BMP280;58439;51.046;13.692;2023-04-24T07:07:39;98827.31;;;16.74
70819;BMP280;58439;51.046;13.692;2023-04-24T07:10:08;98826.53;;;16.73
70819;BMP280;58439;51.046;13.692;2023-04-24T07:12:35;98815.41;;;16.66
70819;BMP280;58439;51.046;13.692;2023-04-24T07:15:04;98828.63;;;16.66
70819;BMP280;58439;51.046;13.692;2023-04-24T07:17:32;98831.03;;;16.58
70819;BMP280;58439;51.046;13.692;2023-04-24T07:19:59;98838.13;;;16.47
70819;BMP280;58439;51.046;13.692;2023-04-24T07:22:29;98836.28;;;16.32
70819;BMP280;58439;51.046;13.692;2023-04-24T07:24:56;98840.75;;;16.32
70819;BMP280;58439;51.046;13.692;2023-04-24T07:27:25;98834.41;;;16.33
70819;BMP280;58439;51.046;13.692;2023-04-24T07:29:52;98835.50;;;16.57
70819;BMP280;58439;51.046;13.692;2023-04-24T07:32:19;98841.84;;;16.76
70819;BMP280;58439;51.046;13.692;2023-04-24T07:34:50;98844.69;;;17.00
70819;BMP280;58439;51.046;13.692;2023-04-24T07:37:17;98833.84;;;17.07
70819;BMP280;58439;51.046;13.692;2023-04-24T07:39:44;98837.84;;;17.04
70819;BMP280;58439;51.046;13.692;2023-04-24T07:42:14;98835.22;;;16.99
70819;BMP280;58439;51.046;13.692;2023-04-24T07:44:41;98841.81;;;16.92
70819;BMP280;58439;51.046;13.692;2023-04-24T07:47:09;98841.81;;;16.92
70819;BMP280;58439;51.046;13.692;2023-04-24T07:49:36;98832.28;;;17.01
70819;BMP280;58439;51.046;13.692;2023-04-24T07:52:03;98838.34;;;17.06
70819;BMP280;58439;51.046;13.692;2023-04-24T07:54:30;98849.69;;;17.17
70819;BMP280;58439;51.046;13.692;2023-04-24T07:56:57;98831.44;;;17.31
70819;BMP280;58439;51.046;13.692;2023-04-24T07:59:24;98848.63;;;17.28
70819;BMP280;58439;51.046;13.692;2023-04-24T08:01:52;98851.25;;;17.33
70819;BMP280;58439;51.046;13.692;2023-04-24T08:04:19;98848.56;;;17.38
70819;BMP280;58439;51.046;13.692;2023-04-24T08:06:48;98845.91;;;17.49
70819;BMP280;58439;51.046;13.692;2023-04-24T08:09:15;98846.91;;;17.63
70819;BMP280;58439;51.046;13.692;2023-04-24T08:11:43;98847.91;;;17.72
70819;BMP280;58439;51.046;13.692;2023-04-24T08:14:10;98852.03;;;17.93
70819;BMP280;58439;51.046;13.692;2023-04-24T08:16:39;98854.38;;;18.00
70819;BMP280;58439;51.046;13.692;2023-04-24T08:19:07;98854.84;;;18.12
70819;BMP280;58439;51.046;13.692;2023-04-24T08:21:34;98853.03;;;18.07
70819;BMP280;58439;51.046;13.692;2023-04-24T08:24:01;98854.09;;;18.01
70819;BMP280;58439;51.046;13.692;2023-04-24T08:26:31;98847.50;;;18.04
70819;BMP280;58439;51.046;13.692;2023-04-24T08:28:59;98852.16;;;18.17
70819;BMP280;58439;51.046;13.692;2023-04-24T08:31:26;98858.78;;;18.15
70819;BMP280;58439;51.046;13.692;2023-04-24T08:33:53;98856.47;;;18.08
70819;BMP280;58439;51.046;13.692;2023-04-24T08:36:21;98859.81;;;18.19
70819;BMP280;58439;51.046;13.692;2023-04-24T08:38:52;98853.16;;;18.26
70819;BMP280;58439;51.046;13.692;2023-04-24T08:41:20;98861.59;;;18.33
70819;BMP280;58439;51.046;13.692;2023-04-24T08:43:48;98860.31;;;18.26
70819;BMP280;58439;51.046;13.692;2023-04-24T08:46:16;98871.19;;;18.19
70819;BMP280;58439;51.046;13.692;2023-04-24T08:48:43;98867.47;;;18.20
70819;BMP280;58439;51.046;13.692;2023-04-24T08:51:11;98875.41;;;18.25
70819;BMP280;58439;51.046;13.692;2023-04-24T08:53:39;98861.06;;;18.31
70819;BMP280;58439;51.046;13.692;2023-04-24T08:56:06;98863.78;;;18.21
70819;BMP280;58439;51.046;13.692;2023-04-24T08:58:35;98868.34;;;18.11
70819;BMP280;58439;51.046;13.692;2023-04-24T09:01:04;98870.22;;;18.10
70819;BMP280;58439;51.046;13.692;2023-04-24T09:03:32;98868.78;;;18.28
70819;BMP280;58439;51.046;13.692;2023-04-24T09:06:02;98865.47;;;18.46
70819;BMP280;58439;51.046;13.692;2023-04-24T09:08:30;98878.03;;;18.64
70819;BMP280;58439;51.046;13.692;2023-04-24T09:10:57;98875.97;;;18.56
70819;BMP280;58439;51.046;13.692;2023-04-24T09:13:26;98872.41;;;18.42
70819;BMP280;58439;51.046;13.692;2023-04-24T09:15:54;98869.44;;;18.44
70819;BMP280;58439;51.046;13.692;2023-04-24T09:18:21;98873.22;;;18.37
70819;BMP280;58439;51.046;13.692;2023-04-24T09:21:07;98864.97;;;18.39
70819;BMP280;58439;51.046;13.692;2023-04-24T09:23:35;98867.69;;;18.63
70819;BMP280;58439;51.046;13.692;2023-04-24T09:26:03;98870.34;;;18.63
70819;BMP280;58439;51.046;13.692;2023-04-24T09:28:40;98872.66;;;18.41
70819;BMP280;58439;51.046;13.692;2023-04-24T09:31:11;98880.81;;;18.49
70819;BMP280;58439;51.046;13.692;2023-04-24T09:33:39;98873.44;;;18.41
70819;BMP280;58439;51.046;13.692;2023-04-24T09:36:09;98873.06;;;18.53
70819;BMP280;58439;51.046;13.692;2023-04-24T09:38:38;98873.28;;;18.61
70819;BMP280;58439;51.046;13.692;2023-04-24T09:41:13;98878.25;;;18.68
70819;BMP280;58439;51.046;13.692;2023-04-24T09:43:40;98871.19;;;18.58
70819;BMP280;58439;51.046;13.692;2023-04-24T09:46:08;98868.97;;;18.71
70819;BMP280;58439;51.046;13.692;2023-04-24T09:48:37;98865.84;;;18.63
70819;BMP280;58439;51.046;13.692;2023-04-24T09:51:06;98872.09;;;18.78
70819;BMP280;58439;51.046;13.692;2023-04-24T09:53:40;98865.44;;;19.04
70819;BMP280;58439;51.046;13.692;2023-04-24T09:56:14;98869.59;;;19.15
70819;BMP280;58439;51.046;13.692;2023-04-24T09:58:42;98878.94;;;19.08
70819;BMP280;58439;51.046;13.692;2023-04-24T10:01:09;98870.06;;;18.69
70819;BMP280;58439;51.046;13.692;2023-04-24T10:03:36;98876.84;;;18.47
70819;BMP280;58439;51.046;13.692;2023-04-24T10:06:04;98866.00;;;18.43
70819;BMP280;58439;51.046;13.692;2023-04-24T10:08:36;98863.84;;;18.50
70819;BMP280;58439;51.046;13.692;2023-04-24T10:11:04;98863.38;;;18.72
70819;BMP280;58439;51.046;13.692;2023-04-24T10:13:32;98866.13;;;18.91
70819;BMP280;58439;51.046;13.692;2023-04-24T10:16:00;98863.41;;;18.96
70819;BMP280;58439;51.046;13.692;2023-04-24T10:18:30;98864.84;;;18.88
70819;BMP280;58439;51.046;13.692;2023-04-24T10:20:59;98863.47;;;18.91
70819;BMP280;58439;51.046;13.692;2023-04-24T10:23:29;98854.44;;;18.92
70819;BMP280;58439;51.046;13.692;2023-04-24T10:25:57;98850.69;;;19.46
70819;BMP280;58439;51.046;13.692;2023-04-24T10:28:26;98853.75;;;19.96
70819;BMP280;58439;51.046;13.692;2023-04-24T10:30:55;98852.03;;;20.18
70819;BMP280;58439;51.046;13.692;2023-04-24T10:33:26;98849.91;;;20.20
70819;BMP280;58439;51.046;13.692;2023-04-24T10:35:54;98844.31;;;20.54
70819;BMP280;58439;51.046;13.692;2023-04-24T10:38:25;98850.75;;;20.35
70819;BMP280;58439;51.046;13.692;2023-04-24T10:41:13;98839.94;;;19.75
70819;BMP280;58439;51.046;13.692;2023-04-24T10:43:46;98849.94;;;19.64
70819;BMP280;58439;51.046;13.692;2023-04-24T10:46:21;98854.88;;;19.52
70819;BMP280;58439;51.046;13.692;2023-04-24T10:48:56;98854.47;;;19.40
70819;BMP280;58439;51.046;13.692;2023-04-24T10:51:42;98851.69;;;19.50
70819;BMP280;58439;51.046;13.692;2023-04-24T10:54:41;98853.75;;;19.96
70819;BMP280;58439;51.046;13.692;2023-04-24T10:57:28;98852.34;;;19.98
70819;BMP280;58439;51.046;13.692;2023-04-24T11:00:24;98851.41;;;19.27
70819;BMP280;58439;51.046;13.692;2023-04-24T11:02:54;98857.94;;;18.87
70819;BMP280;58439;51.046;13.692;2023-04-24T11:05:23;98862.34;;;18.68
70819;BMP280;58439;51.046;13.692;2023-04-24T11:08:15;98859.56;;;18.54
70819;BMP280;58439;51.046;13.692;2023-04-24T11:11:14;98851.06;;;18.23
70819;BMP280;58439;51.046;13.692;2023-04-24T11:16:43;98859.28;;;17.72
70819;BMP280;58439;51.046;13.692;2023-04-24T11:21:46;98863.75;;;17.82
70819;BMP280;58439;51.046;13.692;2023-04-24T11:27:22;98869.88;;;18.22
70819;BMP280;58439;51.046;13.692;2023-04-24T11:30:00;98871.69;;;18.60
70819;BMP280;58439;51.046;13.692;2023-04-24T11:32:41;98870.19;;;19.55
70819;BMP280;58439;51.046;13.692;2023-04-24T11:35:19;98866.22;;;21.06
70819;BMP280;58439;51.046;13.692;2023-04-24T11:37:50;98874.63;;;22.22
70819;BMP280;58439;51.046;13.692;2023-04-24T11:40:24;98865.38;;;23.72
70819;BMP280;58439;51.046;13.692;2023-04-24T11:42:53;98863.03;;;23.79
70819;BMP280;58439;51.046;13.692;2023-04-24T11:45:27;98863.44;;;22.73
70819;BMP280;58439;51.046;13.692;2023-04-24T11:47:56;98862.56;;;22.86
70819;BMP280;58439;51.046;13.692;2023-04-24T11:50:26;98869.69;;;22.60
70819;BMP280;58439;51.046;13.692;2023-04-24T11:52:54;98855.84;;;21.46
70819;BMP280;58439;51.046;13.692;2023-04-24T11:55:25;98856.25;;;20.98
70819;BMP280;58439;51.046;13.692;2023-04-24T11:57:57;98860.91;;;21.34
70819;BMP280;58439;51.046;13.692;2023-04-24T12:00:29;98857.97;;;21.71
70819;BMP280;58439;51.046;13.692;2023-04-24T12:03:06;98878.81;;;20.87
70819;BMP280;58439;51.046;13.692;2023-04-24T12:05:34;98873.75;;;19.88
70819;BMP280;58439;51.046;13.692;2023-04-24T12:08:04;98872.75;;;19.17
70819;BMP280;58439;51.046;13.692;2023-04-24T12:10:33;98876.38;;;18.68
70819;BMP280;58439;51.046;13.692;2023-04-24T12:13:03;98872.50;;;18.27
70819;BMP280;58439;51.046;13.692;2023-04-24T12:15:31;98872.06;;;18.04
70819;BMP280;58439;51.046;13.692;2023-04-24T12:17:58;98873.22;;;17.93
70819;BMP280;58439;51.046;13.692;2023-04-24T12:20:32;98882.50;;;17.81
70819;BMP280;58439;51.046;13.692;2023-04-24T12:23:01;98878.59;;;17.73
70819;BMP280;58439;51.046;13.692;2023-04-24T12:25:32;98874.28;;;17.92
70819;BMP280;58439;51.046;13.692;2023-04-24T12:30:47;98876.34;;;20.12
70819;BMP280;58439;51.046;13.692;2023-04-24T12:33:20;98872.56;;;22.80
70819;BMP280;58439;51.046;13.692;2023-04-24T12:35:52;98861.00;;;23.85
70819;BMP280;58439;51.046;13.692;2023-04-24T12:38:25;98873.00;;;22.43
70819;BMP280;58439;51.046;13.692;2023-04-24T12:41:25;98886.00;;;21.28
70819;BMP280;58439;51.046;13.692;2023-04-24T12:43:53;98891.03;;;21.43
70819;BMP280;58439;51.046;13.692;2023-04-24T12:46:21;98886.03;;;21.64
70819;BMP280;58439;51.046;13.692;2023-04-24T12:48:49;98888.88;;;21.17
70819;BMP280;58439;51.046;13.692;2023-04-24T12:51:17;98891.53;;;20.57
70819;BMP280;58439;51.046;13.692;2023-04-24T12:53:44;98889.22;;;20.18
70819;BMP280;58439;51.046;13.692;2023-04-24T12:56:11;98886.59;;;19.81
70819;BMP280;58439;51.046;13.692;2023-04-24T12:58:38;98884.97;;;20.04
70819;BMP280;58439;51.046;13.692;2023-04-24T13:01:05;98883.84;;;20.42
70819;BMP280;58439;51.046;13.692;2023-04-24T13:03:33;98874.94;;;20.33
70819;BMP280;58439;51.046;13.692;2023-04-24T13:06:00;98886.13;;;21.86
70819;BMP280;58439;51.046;13.692;2023-04-24T13:08:28;98866.78;;;24.13
70819;BMP280;58439;51.046;13.692;2023-04-24T13:10:55;98869.47;;;23.87
70819;BMP280;58439;51.046;13.692;2023-04-24T13:13:22;98869.88;;;24.32
70819;BMP280;58439;51.046;13.692;2023-04-24T13:15:50;98864.66;;;24.74
70819;BMP280;58439;51.046;13.692;2023-04-24T13:18:17;98865.66;;;25.61
70819;BMP280;58439;51.046;13.692;2023-04-24T13:20:44;98861.66;;;26.00
70819;BMP280;58439;51.046;13.692;2023-04-24T13:23:14;98870.00;;;26.19
70819;BMP280;58439;51.046;13.692;2023-04-24T13:25:42;98879.19;;;25.44
70819;BMP280;58439;51.046;13.692;2023-04-24T13:28:09;98874.81;;;24.89
70819;BMP280;58439;51.046;13.692;2023-04-24T13:30:37;98864.16;;;25.10
70819;BMP280;58439;51.046;13.692;2023-04-24T13:33:04;98870.50;;;25.68
70819;BMP280;58439;51.046;13.692;2023-04-24T13:35:32;98881.72;;;25.61
70819;BMP280;58439;51.046;13.692;2023-04-24T13:37:59;98892.97;;;25.34
70819;BMP280;58439;51.046;13.692;2023-04-24T13:40:28;98879.84;;;25.82
70819;BMP280;58439;51.046;13.692;2023-04-24T13:42:55;98889.25;;;26.01
70819;BMP280;58439;51.046;13.692;2023-04-24T13:45:22;98882.78;;;25.27
70819;BMP280;58439;51.046;13.692;2023-04-24T13:47:52;98888.31;;;23.56
70819;BMP280;58439;51.046;13.692;2023-04-24T13:50:21;98887.16;;;21.63
70819;BMP280;58439;51.046;13.692;2023-04-24T13:52:48;98878.75;;;21.55
70819;BMP280;58439;51.046;13.692;2023-04-24T13:55:16;98878.84;;;22.45
70819;BMP280;58439;51.046;13.692;2023-04-24T13:57:43;98873.94;;;22.69
70819;BMP280;58439;51.046;13.692;2023-04-24T14:00:11;98838.97;;;23.19
70819;BMP280;58439;51.046;13.692;2023-04-24T14:02:41;98869.94;;;23.98
70819;BMP280;58439;51.046;13.692;2023-04-24T14:05:09;98879.59;;;24.83
70819;BMP280;58439;51.046;13.692;2023-04-24T14:07:49;98881.09;;;24.64
70819;BMP280;58439;51.046;13.692;2023-04-24T14:10:23;98876.97;;;24.11
70819;BMP280;58439;51.046;13.692;2023-04-24T14:12:58;98884.44;;;24.52
70819;BMP280;58439;51.046;13.692;2023-04-24T14:15:45;98870.38;;;24.64
70819;BMP280;58439;51.046;13.692;2023-04-24T14:18:24;98868.28;;;25.49
70819;BMP280;58439;51.046;13.692;2023-04-24T14:20:51;98862.13;;;25.69
70819;BMP280;58439;51.046;13.692;2023-04-24T14:23:19;98864.69;;;25.99
70819;BMP280;58439;51.046;13.692;2023-04-24T14:25:46;98860.72;;;25.84
70819;BMP280;58439;51.046;13.692;2023-04-24T14:28:19;98866.44;;;26.52
70819;BMP280;58439;51.046;13.692;2023-04-24T14:30:47;98879.06;;;27.00
70819;BMP280;58439;51.046;13.692;2023-04-24T14:33:14;98876.22;;;26.23
70819;BMP280;58439;51.046;13.692;2023-04-24T14:35:42;98861.81;;;25.08
70819;BMP280;58439;51.046;13.692;2023-04-24T14:38:10;98867.03;;;24.37
70819;BMP280;58439;51.046;13.692;2023-04-24T14:40:40;98859.06;;;24.11
70819;BMP280;58439;51.046;13.692;2023-04-24T14:43:10;98868.63;;;24.68
70819;BMP280;58439;51.046;13.692;2023-04-24T14:45:38;98868.06;;;24.54
70819;BMP280;58439;51.046;13.692;2023-04-24T14:48:05;98857.72;;;24.52
70819;BMP280;58439;51.046;13.692;2023-04-24T14:50:32;98873.19;;;24.29
70819;BMP280;58439;51.046;13.692;2023-04-24T14:52:59;98867.31;;;24.36
70819;BMP280;58439;51.046;13.692;2023-04-24T14:55:28;98866.16;;;23.99
70819;BMP280;58439;51.046;13.692;2023-04-24T14:57:56;98867.59;;;23.88
70819;BMP280;58439;51.046;13.692;2023-04-24T15:00:23;98884.25;;;23.50
70819;BMP280;58439;51.046;13.692;2023-04-24T15:02:50;98867.53;;;23.18